Time;durP1;ratioP1;P1;durP2;ratioP2;P2;SDS_P1;SDS_P2;PMS_P1;PMS_P2;Temp;Humidity;BMP_temperature;BMP_pressure;BME280_temperature;BME280_humidity;BME280_pressure;Samples;Min_cycle;Max_cycle;Signal;HPM_P1;HPM_P2
2022/07/30 00:01:25;;;;;;;4.30;3.13;;;17.90;99.90;;;;;;5001159;28;20029;-32
2022/07/30 00:03:51;;;;;;;4.68;3.92;;;17.90;99.90;;;;;;4996881;28;20116;-33
2022/07/30 00:06:16;;;;;;;5.07;3.55;;;17.90;99.90;;;;;;5001889;28;20033;-32
2022/07/30 00:08:42;;;;;;;3.83;3.50;;;17.80;99.90;;;;;;5007965;28;20105;-32
2022/07/30 00:11:08;;;;;;;4.03;3.60;;;17.80;99.90;;;;;;5006199;28;20512;-32
2022/07/30 00:13:33;;;;;;;4.05;3.28;;;17.80;99.90;;;;;;5006242;28;20034;-33
2022/07/30 00:15:59;;;;;;;4.15;3.70;;;17.80;99.90;;;;;;5004966;28;20488;-32
2022/07/30 00:18:25;;;;;;;3.50;3.20;;;17.80;99.90;;;;;;5005082;28;20034;-33
2022/07/30 00:20:50;;;;;;;4.30;3.28;;;17.70;99.90;;;;;;5005286;28;20117;-32
2022/07/30 00:23:16;;;;;;;4.95;3.88;;;17.80;99.90;;;;;;5005554;28;20038;-32
2022/07/30 00:25:41;;;;;;;4.68;3.53;;;17.80;99.90;;;;;;5002111;28;20026;-33
2022/07/30 00:28:07;;;;;;;11.85;3.47;;;17.80;99.90;;;;;;5000703;28;20129;-32
2022/07/30 00:30:33;;;;;;;4.45;3.75;;;17.70;99.90;;;;;;5002342;28;20021;-33
2022/07/30 00:32:58;;;;;;;3.72;3.03;;;17.70;99.90;;;;;;5019512;28;20756;-32
2022/07/30 00:35:24;;;;;;;4.53;3.55;;;17.70;99.90;;;;;;5001634;28;20593;-33
2022/07/30 00:37:49;;;;;;;4.63;3.75;;;17.70;99.90;;;;;;5003554;28;20030;-32
2022/07/30 00:40:15;;;;;;;4.22;3.80;;;17.70;99.90;;;;;;5000602;28;20034;-33
2022/07/30 00:42:46;;;;;;;3.97;3.55;;;17.60;99.90;;;;;;5004059;28;20120;-32
2022/07/30 00:45:13;;;;;;;4.32;3.35;;;17.60;99.90;;;;;;5005333;28;20471;-32
2022/07/30 00:47:39;;;;;;;4.30;3.63;;;17.60;99.90;;;;;;5002086;28;20116;-32
2022/07/30 00:50:07;;;;;;;4.20;3.33;;;17.50;99.90;;;;;;5006156;28;20038;-32
2022/07/30 00:52:34;;;;;;;4.30;3.90;;;17.40;99.90;;;;;;5004099;28;20060;-32
2022/07/30 00:55:00;;;;;;;5.03;3.80;;;17.40;99.90;;;;;;5004086;28;20079;-33
2022/07/30 00:57:27;;;;;;;5.07;3.78;;;17.30;99.90;;;;;;5005444;28;20289;-33
2022/07/30 00:59:54;;;;;;;4.53;3.47;;;17.30;99.90;;;;;;5006816;28;20034;-32
2022/07/30 01:02:20;;;;;;;5.15;3.50;;;17.30;99.90;;;;;;5004072;28;20057;-33
2022/07/30 01:04:46;;;;;;;3.88;3.28;;;17.30;99.90;;;;;;5003846;28;20406;-33
2022/07/30 01:07:12;;;;;;;3.95;3.42;;;17.30;99.90;;;;;;5005709;28;20025;-32
2022/07/30 01:09:38;;;;;;;3.65;3.17;;;17.30;99.90;;;;;;5006188;28;20552;-32
2022/07/30 01:12:05;;;;;;;4.80;3.53;;;17.30;99.90;;;;;;5003434;28;20025;-33
2022/07/30 01:14:35;;;;;;;5.43;3.78;;;17.30;99.90;;;;;;5004389;28;20356;-33
2022/07/30 01:17:02;;;;;;;4.53;3.60;;;17.30;99.90;;;;;;4999468;28;20026;-32
2022/07/30 01:19:50;;;;;;;3.72;3.25;;;17.30;99.90;;;;;;5002831;28;20037;-32
2022/07/30 01:22:27;;;;;;;3.47;3.17;;;17.20;99.90;;;;;;5003162;28;20053;-32
2022/07/30 01:25:10;;;;;;;5.47;3.83;;;17.20;99.90;;;;;;5003172;28;20537;-32
2022/07/30 01:27:59;;;;;;;3.55;3.25;;;17.10;99.90;;;;;;5000979;28;20038;-32
2022/07/30 01:30:28;;;;;;;4.72;3.47;;;17.00;99.90;;;;;;5001581;28;20804;-32
2022/07/30 01:32:56;;;;;;;5.70;3.45;;;17.10;99.90;;;;;;4999467;28;20376;-33
2022/07/30 01:35:24;;;;;;;4.47;3.50;;;17.00;99.90;;;;;;5001063;28;20044;-33
2022/07/30 01:37:52;;;;;;;3.55;3.25;;;16.90;99.90;;;;;;5004331;28;20030;-32
2022/07/30 01:40:19;;;;;;;4.40;3.57;;;16.90;99.90;;;;;;5001894;28;20037;-33
2022/07/30 01:42:48;;;;;;;3.65;3.15;;;16.80;99.90;;;;;;5002633;28;20383;-33
2022/07/30 01:45:16;;;;;;;4.72;3.53;;;16.80;99.90;;;;;;5005211;28;20038;-32
2022/07/30 01:47:43;;;;;;;3.80;3.45;;;16.90;99.90;;;;;;5004076;28;20594;-32
2022/07/30 01:50:13;;;;;;;4.65;3.75;;;16.80;99.90;;;;;;5003803;28;20161;-33
2022/07/30 01:52:41;;;;;;;3.88;3.42;;;16.90;99.90;;;;;;5005063;28;20109;-32
2022/07/30 01:55:09;;;;;;;4.10;3.70;;;16.90;99.90;;;;;;5005493;28;20053;-32
2022/07/30 01:57:37;;;;;;;3.50;3.20;;;16.80;99.90;;;;;;5010547;28;20547;-32
2022/07/30 02:00:06;;;;;;;3.90;3.60;;;16.80;99.90;;;;;;5008048;28;20432;-32
2022/07/30 02:02:33;;;;;;;;;;;16.90;99.90;;;;;;5003549;28;20038;-32
2022/07/30 02:04:59;;;;;;;5.55;3.30;;;16.80;99.90;;;;;;5004390;28;19913;-32
2022/07/30 02:07:44;;;;;;;4.82;3.70;;;16.80;99.90;;;;;;5004477;28;20373;-33
2022/07/30 02:10:14;;;;;;;3.63;3.33;;;16.80;99.90;;;;;;5002329;28;20492;-32
2022/07/30 02:12:51;;;;;;;4.22;3.40;;;16.80;99.90;;;;;;5003402;28;21252;-33
2022/07/30 02:15:22;;;;;;;5.40;3.35;;;16.80;99.90;;;;;;5001268;28;20034;-32
2022/07/30 02:18:12;;;;;;;3.92;3.45;;;16.80;99.90;;;;;;5001419;28;20125;-32
2022/07/30 02:20:39;;;;;;;4.20;3.42;;;16.80;99.90;;;;;;5001113;28;20136;-32
2022/07/30 02:23:10;;;;;;;4.88;3.00;;;16.80;99.90;;;;;;5000680;28;20507;-32
2022/07/30 02:25:41;;;;;;;4.43;3.88;;;16.80;99.90;;;;;;4999045;28;20080;-33
2022/07/30 02:28:10;;;;;;;4.65;3.85;;;16.80;99.90;;;;;;5002801;28;20029;-33
2022/07/30 02:30:39;;;;;;;4.47;4.07;;;16.70;99.90;;;;;;4999775;28;20541;-33
2022/07/30 02:33:09;;;;;;;5.55;4.07;;;16.70;99.90;;;;;;5000278;28;20055;-33
2022/07/30 02:35:37;;;;;;;4.70;3.88;;;16.70;99.90;;;;;;4999140;28;20510;-32
2022/07/30 02:38:04;;;;;;;5.18;3.90;;;16.70;99.90;;;;;;4998226;28;20491;-32
2022/07/30 02:40:30;;;;;;;7.38;4.07;;;16.70;99.90;;;;;;5002491;28;20049;-32
2022/07/30 02:42:58;;;;;;;4.28;3.67;;;16.60;99.90;;;;;;5003295;28;20406;-32
2022/07/30 02:45:25;;;;;;;4.78;4.22;;;16.60;99.90;;;;;;5002023;28;20036;-32
2022/07/30 02:47:57;;;;;;;5.28;4.25;;;16.50;99.90;;;;;;5003289;28;20052;-32
2022/07/30 02:50:23;;;;;;;9.10;4.60;;;16.50;99.90;;;;;;5003987;28;20029;-32
2022/07/30 02:52:52;;;;;;;5.63;4.47;;;16.60;99.90;;;;;;5002291;28;20095;-33
2022/07/30 02:55:18;;;;;;;;;;;16.60;99.90;;;;;;5000635;28;20069;-33
2022/07/30 02:57:45;;;;;;;5.75;4.40;;;16.60;99.90;;;;;;5002381;28;20297;-33
2022/07/30 03:00:12;;;;;;;5.63;4.18;;;16.60;99.90;;;;;;5003772;28;20057;-33
2022/07/30 03:02:39;;;;;;;6.38;4.25;;;16.70;99.90;;;;;;5001891;28;20037;-32
2022/07/30 03:05:07;;;;;;;7.63;4.30;;;16.70;99.90;;;;;;5002955;28;20160;-32
2022/07/30 03:07:34;;;;;;;5.10;4.57;;;16.70;99.90;;;;;;5003168;28;20030;-33
2022/07/30 03:10:01;;;;;;;4.30;3.90;;;16.70;99.90;;;;;;5002665;28;20048;-33
2022/07/30 03:12:30;;;;;;;5.28;4.22;;;16.70;99.90;;;;;;5002354;28;20028;-33
2022/07/30 03:14:56;;;;;;;5.55;4.20;;;16.70;99.90;;;;;;4998351;28;20029;-33
2022/07/30 03:17:24;;;;;;;5.53;4.53;;;16.60;99.90;;;;;;5001134;28;20032;-32
2022/07/30 03:19:53;;;;;;;6.20;4.65;;;16.60;99.90;;;;;;5000311;28;20038;-32
2022/07/30 03:22:21;;;;;;;4.55;4.15;;;16.60;99.90;;;;;;5000314;28;20034;-33
2022/07/30 03:24:49;;;;;;;7.53;4.50;;;16.60;99.90;;;;;;4999532;28;20061;-32
2022/07/30 03:27:17;;;;;;;5.03;4.30;;;16.60;99.90;;;;;;5000607;28;20466;-32
2022/07/30 03:29:44;;;;;;;5.65;4.05;;;16.60;99.90;;;;;;5001402;28;20394;-32
2022/07/30 03:32:11;;;;;;;5.25;4.45;;;16.60;99.90;;;;;;5000756;28;20034;-32
2022/07/30 03:34:37;;;;;;;4.93;4.35;;;16.50;99.90;;;;;;4999612;28;20048;-32
2022/07/30 03:37:04;;;;;;;6.50;5.13;;;16.50;99.90;;;;;;5002415;28;20022;-32
2022/07/30 03:39:33;;;;;;;5.55;4.63;;;16.50;99.90;;;;;;5003130;28;20498;-32
2022/07/30 03:41:59;;;;;;;6.55;4.60;;;16.50;99.90;;;;;;5003356;28;20060;-32
2022/07/30 03:44:25;;;;;;;6.82;4.68;;;16.50;99.90;;;;;;5006397;28;20531;-32
2022/07/30 03:46:52;;;;;;;6.80;4.57;;;16.50;99.90;;;;;;5006956;28;20022;-32
2022/07/30 03:49:20;;;;;;;5.13;4.10;;;16.50;99.90;;;;;;5006348;28;20026;-32
2022/07/30 03:51:46;;;;;;;4.35;3.95;;;16.50;99.90;;;;;;5005013;28;20498;-33
2022/07/30 03:54:13;;;;;;;5.22;4.15;;;16.50;99.90;;;;;;5006909;28;20046;-33
2022/07/30 03:56:39;;;;;;;5.97;4.80;;;16.40;99.90;;;;;;5008392;28;20025;-32
2022/07/30 03:59:05;;;;;;;4.70;4.22;;;16.40;99.90;;;;;;5002574;28;20041;-32
2022/07/30 04:01:30;;;;;;;4.63;4.22;;;16.30;99.90;;;;;;5004682;28;20056;-32
2022/07/30 04:04:06;;;;;;;5.57;4.50;;;16.40;99.90;;;;;;5006144;28;20051;-32
2022/07/30 04:06:38;;;;;;;4.45;4.05;;;16.40;99.90;;;;;;5004832;28;20119;-32
2022/07/30 04:09:05;;;;;;;5.13;4.57;;;16.40;99.90;;;;;;5004502;28;20060;-32
2022/07/30 04:11:30;;;;;;;5.35;4.10;;;16.40;99.90;;;;;;5001162;28;20038;-32
2022/07/30 04:13:56;;;;;;;6.88;4.97;;;16.40;99.90;;;;;;5006153;28;20144;-32
2022/07/30 04:16:47;;;;;;;4.68;4.25;;;16.40;99.90;;;;;;5006411;28;20049;-32
2022/07/30 04:19:36;;;;;;;4.85;4.35;;;16.50;99.90;;;;;;5005079;28;20030;-32
2022/07/30 04:22:02;;;;;;;5.00;4.18;;;16.50;99.90;;;;;;5004108;28;20163;-33
2022/07/30 04:24:29;;;;;;;4.57;4.10;;;16.60;99.90;;;;;;5001643;28;20025;-32
2022/07/30 04:26:57;;;;;;;5.53;4.32;;;16.60;99.90;;;;;;5006510;28;20104;-32
2022/07/30 04:29:23;;;;;;;6.25;4.60;;;16.70;99.90;;;;;;5006444;28;20084;-32
2022/07/30 04:31:50;;;;;;;6.60;4.80;;;16.60;99.90;;;;;;5004461;28;20794;-32
2022/07/30 04:34:15;;;;;;;5.20;4.70;;;16.70;99.90;;;;;;5005816;28;20045;-32
2022/07/30 04:36:41;;;;;;;5.18;4.40;;;16.70;99.90;;;;;;5006138;28;20022;-33
2022/07/30 04:39:07;;;;;;;5.20;4.35;;;16.70;99.90;;;;;;5004140;28;20096;-32
2022/07/30 04:41:32;;;;;;;10.32;4.55;;;16.80;99.90;;;;;;5005498;28;20034;-32
2022/07/30 04:43:58;;;;;;;5.35;4.53;;;16.70;99.90;;;;;;5006516;28;20065;-32
2022/07/30 04:46:24;;;;;;;6.45;4.47;;;16.80;99.90;;;;;;5005520;28;20615;-33
2022/07/30 04:48:49;;;;;;;6.30;4.78;;;16.80;99.90;;;;;;5003887;28;20034;-32
2022/07/30 04:51:42;;;;;;;4.97;4.18;;;16.70;99.90;;;;;;5006980;28;20360;-32
2022/07/30 04:54:11;;;;;;;4.78;4.22;;;16.70;99.90;;;;;;5001202;28;20573;-33
2022/07/30 04:56:37;;;;;;;4.53;3.95;;;16.70;99.90;;;;;;5003028;28;20034;-32
2022/07/30 04:59:04;;;;;;;5.00;4.00;;;16.70;99.90;;;;;;5002957;28;20057;-32
2022/07/30 05:01:34;;;;;;;5.85;4.80;;;16.70;99.90;;;;;;5005248;28;20124;-32
2022/07/30 05:04:00;;;;;;;6.38;4.55;;;16.70;99.90;;;;;;5003451;28;20034;-32
2022/07/30 05:06:27;;;;;;;6.68;4.93;;;16.60;99.90;;;;;;5002660;28;20046;-33
2022/07/30 05:08:53;;;;;;;7.15;4.53;;;16.60;99.90;;;;;;5001266;28;20037;-33
2022/07/30 05:11:19;;;;;;;5.07;4.20;;;16.60;99.90;;;;;;5001085;28;21046;-32
2022/07/30 05:13:47;;;;;;;5.25;4.70;;;16.60;99.90;;;;;;5003513;28;20030;-32
2022/07/30 05:16:13;;;;;;;4.53;4.13;;;16.60;99.90;;;;;;5001239;28;20064;-32
2022/07/30 05:18:39;;;;;;;5.15;4.65;;;16.70;99.90;;;;;;4999103;28;20034;-32
2022/07/30 05:21:05;;;;;;;6.45;4.78;;;16.70;99.90;;;;;;5004633;28;20451;-32
2022/07/30 05:23:31;;;;;;;5.95;5.38;;;16.70;99.90;;;;;;5003256;28;20402;-32
2022/07/30 05:25:57;;;;;;;5.70;4.80;;;16.70;99.90;;;;;;5004104;28;20037;-33
2022/07/30 05:28:25;;;;;;;5.25;4.75;;;16.70;99.90;;;;;;5001678;28;20084;-32
2022/07/30 05:30:51;;;;;;;;;;;16.80;99.90;;;;;;5002572;28;20044;-33
2022/07/30 05:33:17;;;;;;;5.60;4.95;;;16.90;99.90;;;;;;5001273;28;19924;-32
2022/07/30 05:35:42;;;;;;;5.00;4.50;;;16.90;99.90;;;;;;5004035;28;20034;-32
2022/07/30 05:38:08;;;;;;;4.97;4.45;;;16.90;99.90;;;;;;5002157;28;20041;-33
2022/07/30 05:40:34;;;;;;;5.82;4.63;;;16.90;99.90;;;;;;5001964;28;20036;-33
2022/07/30 05:42:59;;;;;;;5.95;4.50;;;17.00;99.90;;;;;;5006102;28;20494;-32
2022/07/30 05:45:25;;;;;;;6.85;5.03;;;17.00;99.90;;;;;;5003310;28;20030;-32
2022/07/30 05:47:51;;;;;;;7.65;4.65;;;17.10;99.90;;;;;;5000819;28;20022;-33
2022/07/30 05:50:17;;;;;;;5.65;5.03;;;17.20;99.90;;;;;;4998971;28;20029;-32
2022/07/30 05:52:42;;;;;;;5.63;4.47;;;17.40;99.90;;;;;;5001313;28;20026;-32
2022/07/30 05:55:09;;;;;;;5.90;4.75;;;17.50;99.90;;;;;;5002975;28;20045;-32
2022/07/30 05:57:35;;;;;;;5.88;5.28;;;17.60;99.90;;;;;;5004204;28;20499;-32
2022/07/30 06:00:06;;;;;;;6.47;5.63;;;17.50;99.90;;;;;;5001439;28;20168;-32
2022/07/30 06:02:32;;;;;;;5.50;4.85;;;17.60;99.90;;;;;;5003693;28;20030;-33
2022/07/30 06:04:57;;;;;;;6.90;5.45;;;17.70;99.90;;;;;;5003716;28;20042;-33
2022/07/30 06:07:23;;;;;;;6.78;5.55;;;17.80;99.90;;;;;;4998472;28;20034;-32
2022/07/30 06:09:48;;;;;;;6.20;5.60;;;17.80;99.90;;;;;;5004264;28;20027;-32
2022/07/30 06:12:14;;;;;;;6.38;5.45;;;17.80;99.90;;;;;;4998347;28;20034;-32
2022/07/30 06:14:40;;;;;;;7.18;5.28;;;17.90;99.90;;;;;;5004997;28;20099;-32
2022/07/30 06:17:05;;;;;;;5.57;4.93;;;18.10;99.90;;;;;;5003639;28;20032;-33
2022/07/30 06:19:31;;;;;;;5.82;5.18;;;18.00;99.90;;;;;;5004889;28;20535;-32
2022/07/30 06:21:56;;;;;;;6.53;5.93;;;18.10;99.90;;;;;;5001581;28;20851;-32
2022/07/30 06:24:22;;;;;;;6.38;5.57;;;18.20;99.90;;;;;;5003313;28;20025;-32
2022/07/30 06:26:48;;;;;;;9.90;5.93;;;18.30;99.90;;;;;;5005749;28;20395;-33
2022/07/30 06:29:13;;;;;;;7.72;5.68;;;18.20;99.90;;;;;;5004651;28;20041;-33
2022/07/30 06:31:40;;;;;;;7.07;6.30;;;18.30;99.90;;;;;;5004796;28;20141;-32
2022/07/30 06:34:06;;;;;;;8.90;5.82;;;18.50;99.90;;;;;;5005561;28;20380;-32
2022/07/30 06:36:31;;;;;;;8.23;5.75;;;18.60;99.90;;;;;;5005464;28;20041;-32
2022/07/30 06:38:57;;;;;;;7.03;6.25;;;18.50;99.90;;;;;;5006994;28;20065;-32
2022/07/30 06:41:22;;;;;;;9.48;6.20;;;18.60;99.90;;;;;;5000669;28;20544;-33
2022/07/30 06:43:49;;;;;;;7.38;6.22;;;18.60;99.90;;;;;;5001878;28;20129;-32
2022/07/30 06:46:15;;;;;;;7.60;6.30;;;18.80;99.90;;;;;;5002272;28;20518;-32
2022/07/30 06:48:41;;;;;;;9.45;7.25;;;18.90;99.90;;;;;;5004212;28;20061;-32
2022/07/30 06:51:07;;;;;;;9.77;6.63;;;18.90;99.90;;;;;;5003363;28;20049;-32
2022/07/30 06:53:33;;;;;;;14.40;6.55;;;18.90;99.90;;;;;;5004948;28;20120;-33
2022/07/30 06:55:58;;;;;;;11.73;6.65;;;18.90;99.90;;;;;;5004165;28;20050;-33
2022/07/30 06:58:24;;;;;;;7.97;6.07;;;19.00;99.90;;;;;;5001019;28;20158;-33
2022/07/30 07:00:50;;;;;;;9.48;6.70;;;18.90;99.90;;;;;;5002298;28;20495;-32
2022/07/30 07:03:15;;;;;;;7.75;6.40;;;19.00;99.90;;;;;;5003476;28;20030;-32
2022/07/30 07:05:41;;;;;;;7.97;5.57;;;19.10;99.90;;;;;;5002180;28;20040;-33
2022/07/30 07:08:07;;;;;;;8.30;5.63;;;19.10;99.90;;;;;;5004786;28;20022;-34
2022/07/30 07:10:32;;;;;;;6.28;4.75;;;19.10;99.90;;;;;;5003492;28;20022;-32
2022/07/30 07:12:59;;;;;;;7.93;6.00;;;19.20;99.90;;;;;;5003217;28;20072;-32
2022/07/30 07:15:25;;;;;;;7.57;6.50;;;19.30;99.90;;;;;;5003764;28;20033;-32
2022/07/30 07:17:50;;;;;;;8.60;6.28;;;19.50;99.90;;;;;;5001531;28;20026;-33
2022/07/30 07:20:16;;;;;;;7.43;6.20;;;19.70;99.90;;;;;;5003700;28;20050;-32
2022/07/30 07:22:42;;;;;;;9.38;6.53;;;19.60;99.90;;;;;;5001634;28;20026;-34
2022/07/30 07:25:08;;;;;;;6.70;5.93;;;19.80;99.90;;;;;;5002262;28;20028;-33
2022/07/30 07:27:35;;;;;;;6.10;5.60;;;19.70;99.90;;;;;;5002304;28;20225;-32
2022/07/30 07:30:01;;;;;;;8.75;5.05;;;20.00;99.90;;;;;;5001488;28;20105;-32
2022/07/30 07:32:26;;;;;;;6.50;5.60;;;20.00;99.90;;;;;;5002879;28;20040;-32
2022/07/30 07:34:52;;;;;;;7.47;5.25;;;19.90;99.90;;;;;;5004362;28;20034;-32
2022/07/30 07:37:17;;;;;;;6.57;5.25;;;20.00;99.90;;;;;;5003675;28;20065;-34
2022/07/30 07:39:43;;;;;;;8.10;5.63;;;20.00;99.90;;;;;;5004296;28;20034;-32
2022/07/30 07:42:09;;;;;;;11.52;5.97;;;19.80;99.90;;;;;;5004456;28;20057;-32
2022/07/30 07:44:34;;;;;;;6.85;5.10;;;19.80;99.90;;;;;;5003374;28;20042;-32
2022/07/30 07:47:00;;;;;;;6.70;5.22;;;20.00;99.90;;;;;;5001792;28;20111;-32
2022/07/30 07:49:25;;;;;;;7.38;5.65;;;20.10;99.90;;;;;;5004727;28;20034;-32
2022/07/30 07:51:51;;;;;;;7.78;5.13;;;20.40;99.90;;;;;;4996806;28;20136;-32
2022/07/30 07:54:16;;;;;;;10.13;5.28;;;20.10;99.90;;;;;;5003385;28;20491;-32
2022/07/30 07:56:42;;;;;;;5.63;3.97;;;20.40;99.90;;;;;;5001972;28;20029;-32
2022/07/30 07:59:07;;;;;;;6.82;5.50;;;20.30;99.90;;;;;;5000883;28;20030;-32
2022/07/30 08:01:33;;;;;;;7.53;5.50;;;20.40;99.90;;;;;;4998610;28;20046;-32
2022/07/30 08:03:59;;;;;;;6.03;5.20;;;20.40;99.90;;;;;;4998718;28;20116;-32
2022/07/30 08:06:25;;;;;;;6.88;5.20;;;20.40;99.90;;;;;;5000519;28;20097;-34
2022/07/30 08:08:50;;;;;;;6.72;5.20;;;20.50;98.40;;;;;;4997221;28;20376;-34
2022/07/30 08:11:16;;;;;;;5.50;4.95;;;20.80;99.90;;;;;;4999190;28;20057;-32
2022/07/30 08:13:42;;;;;;;4.03;3.53;;;21.20;94.20;;;;;;5002904;28;20022;-33
2022/07/30 08:16:09;;;;;;;5.97;4.93;;;21.10;95.30;;;;;;5004390;28;20047;-34
2022/07/30 08:18:36;;;;;;;5.97;4.57;;;20.80;96.80;;;;;;4999273;28;20068;-33
2022/07/30 08:21:02;;;;;;;5.85;4.20;;;20.70;96.70;;;;;;5001660;28;20093;-32
2022/07/30 08:23:28;;;;;;;4.78;4.22;;;20.90;99.00;;;;;;5000570;28;20030;-32
2022/07/30 08:25:55;;;;;;;10.73;5.85;;;20.90;96.60;;;;;;5003700;28;20036;-32
2022/07/30 08:28:20;;;;;;;5.10;3.47;;;20.90;94.80;;;;;;5004500;28;20022;-32
2022/07/30 08:30:46;;;;;;;8.90;4.60;;;20.70;94.60;;;;;;5006333;28;20041;-34
2022/07/30 08:33:12;;;;;;;6.95;4.18;;;20.80;98.10;;;;;;5021304;28;20028;-32
2022/07/30 08:35:37;;;;;;;6.70;4.43;;;21.00;95.30;;;;;;5005493;28;20390;-33
2022/07/30 08:38:03;;;;;;;5.15;4.25;;;21.00;92.50;;;;;;5003552;28;20037;-33
2022/07/30 08:40:32;;;;;;;4.50;3.58;;;21.10;94.20;;;;;;5003115;28;20137;-33
2022/07/30 08:43:02;;;;;;;6.85;4.35;;;21.00;93.30;;;;;;5003188;28;20034;-32
2022/07/30 08:45:29;;;;;;;5.70;4.28;;;21.30;95.10;;;;;;5004016;28;20038;-33
2022/07/30 08:47:59;;;;;;;5.60;4.47;;;21.20;91.40;;;;;;5001875;28;20037;-33
2022/07/30 08:50:24;;;;;;;4.05;3.00;;;21.10;91.00;;;;;;5003671;28;20289;-33
2022/07/30 08:52:54;;;;;;;3.95;3.53;;;21.10;91.30;;;;;;5002928;28;20034;-33
2022/07/30 08:55:24;;;;;;;4.60;4.07;;;21.10;90.60;;;;;;5002454;28;20510;-32
2022/07/30 08:57:50;;;;;;;8.68;5.18;;;21.30;92.10;;;;;;5001119;28;20113;-33
2022/07/30 09:00:17;;;;;;;4.18;3.78;;;21.40;90.50;;;;;;5006214;28;20038;-32
2022/07/30 09:02:43;;;;;;;5.40;4.22;;;21.50;89.50;;;;;;5001432;28;20041;-32
2022/07/30 09:05:10;;;;;;;6.05;3.97;;;21.30;82.50;;;;;;5007311;28;20549;-32
2022/07/30 09:07:36;;;;;;;4.97;3.80;;;21.30;86.20;;;;;;5003486;28;20064;-32
2022/07/30 09:10:04;;;;;;;9.75;4.93;;;21.60;90.50;;;;;;5004324;28;20025;-33
2022/07/30 09:12:34;;;;;;;;;;;22.20;88.50;;;;;;5000635;28;20022;-32
2022/07/30 09:15:19;;;;;;;7.68;4.07;;;22.60;82.50;;;;;;5004539;28;19920;-32
2022/07/30 09:17:57;;;;;;;4.68;3.33;;;22.30;71.20;;;;;;5001807;28;20030;-33
2022/07/30 09:20:34;;;;;;;3.40;3.10;;;21.90;69.90;;;;;;5003972;28;20060;-33
2022/07/30 09:23:02;;;;;;;6.28;3.65;;;22.10;79.40;;;;;;4999838;28;20025;-33
2022/07/30 09:25:40;;;;;;;5.32;2.80;;;22.30;70.10;;;;;;5003831;28;20033;-33
2022/07/30 09:28:08;;;;;;;4.85;3.58;;;21.90;70.70;;;;;;5002741;28;20030;-32
2022/07/30 09:30:45;;;;;;;4.72;3.90;;;21.90;70.40;;;;;;5001767;28;20061;-32
2022/07/30 09:33:11;;;;;;;4.70;3.05;;;22.00;75.90;;;;;;5003788;28;21319;-32
2022/07/30 09:35:38;;;;;;;2.33;2.13;;;21.80;73.40;;;;;;5004259;28;20358;-32
2022/07/30 09:38:06;;;;;;;2.35;2.13;;;21.90;70.50;;;;;;5003410;28;20398;-33
2022/07/30 09:40:32;;;;;;;2.78;1.95;;;22.00;71.70;;;;;;5002393;28;20061;-32
2022/07/30 09:43:16;;;;;;;7.32;2.90;;;21.90;67.60;;;;;;4999092;28;20500;-32
2022/07/30 09:45:54;;;;;;;3.03;2.83;;;21.90;71.50;;;;;;4997442;28;20028;-32
2022/07/30 09:48:24;;;;;;;6.00;3.17;;;22.10;71.00;;;;;;5003691;28;20113;-33
2022/07/30 09:50:51;;;;;;;3.90;3.22;;;22.10;67.50;;;;;;4998615;28;20114;-32
2022/07/30 09:53:18;;;;;;;2.58;2.15;;;22.40;75.70;;;;;;5005064;28;20053;-32
2022/07/30 09:55:44;;;;;;;4.15;2.72;;;22.20;60.30;;;;;;5000614;28;20767;-32
2022/07/30 09:58:11;;;;;;;3.08;2.17;;;22.20;63.30;;;;;;5000882;28;20037;-32
2022/07/30 10:00:38;;;;;;;2.42;1.98;;;22.30;66.20;;;;;;5000021;28;20041;-32
2022/07/30 10:03:20;;;;;;;4.90;3.10;;;22.40;66.20;;;;;;4999510;28;20072;-33
2022/07/30 10:06:00;;;;;;;4.15;3.28;;;22.80;65.70;;;;;;5005118;28;20037;-32
2022/07/30 10:08:45;;;;;;;3.60;2.92;;;22.70;65.30;;;;;;5003913;28;20541;-32
2022/07/30 10:11:16;;;;;;;2.97;2.50;;;22.90;61.20;;;;;;4999170;28;20049;-32
2022/07/30 10:13:43;;;;;;;2.00;1.70;;;22.50;58.50;;;;;;5002266;28;20049;-32
2022/07/30 10:16:09;;;;;;;2.03;1.92;;;22.20;59.40;;;;;;5003094;28;20092;-33
2022/07/30 10:18:36;;;;;;;3.40;2.85;;;22.20;60.60;;;;;;5000637;28;20037;-32
2022/07/30 10:21:02;;;;;;;4.30;2.58;;;22.30;60.80;;;;;;5003223;28;20033;-32
2022/07/30 10:23:29;;;;;;;3.55;3.20;;;22.40;60.30;;;;;;5001315;28;20080;-33
2022/07/30 10:25:56;;;;;;;3.03;2.70;;;22.50;60.90;;;;;;5001395;28;20042;-33
2022/07/30 10:28:23;;;;;;;3.83;2.87;;;22.60;60.50;;;;;;5000872;28;20026;-33
2022/07/30 10:30:50;;;;;;;4.32;3.20;;;22.60;61.20;;;;;;4999924;28;20056;-32
2022/07/30 10:33:17;;;;;;;2.77;2.57;;;22.90;59.40;;;;;;4999496;28;20064;-33
2022/07/30 10:35:42;;;;;;;2.28;2.05;;;22.70;58.90;;;;;;5002983;28;20141;-33
2022/07/30 10:38:10;;;;;;;2.70;2.30;;;22.80;55.10;;;;;;4997895;28;20132;-32
2022/07/30 10:41:20;;;;;;;2.88;2.67;;;22.80;57.00;;;;;;5000692;28;20080;-32
2022/07/30 10:44:06;;;;;;;2.72;2.50;;;22.70;54.10;;;;;;4971020;28;20132;-32
2022/07/30 10:46:44;;;;;;;6.70;3.05;;;23.10;61.00;;;;;;4999308;28;20026;-32
2022/07/30 10:49:14;;;;;;;;;;;22.90;57.20;;;;;;5001994;28;20395;-32
2022/07/30 10:51:51;;;;;;;3.40;2.88;;;22.80;52.20;;;;;;4998832;28;19913;-32
2022/07/30 10:54:39;;;;;;;4.47;2.00;;;22.70;54.40;;;;;;5000257;28;20069;-36
2022/07/30 10:57:08;;;;;;;1.60;1.50;;;22.90;56.00;;;;;;5002150;28;20080;-33
2022/07/30 10:59:49;;;;;;;1.90;1.80;;;22.80;51.50;;;;;;5000706;28;20034;-33
2022/07/30 11:02:15;;;;;;;4.80;2.70;;;22.90;53.00;;;;;;4998863;28;20162;-32
2022/07/30 11:04:42;;;;;;;2.90;2.60;;;23.10;58.00;;;;;;4996930;28;20080;-32
2022/07/30 11:07:22;;;;;;;6.22;2.65;;;23.10;52.20;;;;;;5003917;28;20053;-33
2022/07/30 11:09:59;;;;;;;3.92;1.98;;;23.00;55.20;;;;;;5006361;28;20041;-33
2022/07/30 11:12:44;;;;;;;4.18;2.33;;;22.90;50.60;;;;;;5000268;28;20507;-33
2022/07/30 11:15:13;;;;;;;2.35;1.65;;;23.00;51.00;;;;;;5001961;28;20103;-33
2022/07/30 11:17:58;;;;;;;3.08;2.78;;;22.90;51.70;;;;;;4998947;28;20097;-36
2022/07/30 11:20:24;;;;;;;3.65;3.10;;;23.20;54.00;;;;;;5002949;28;20495;-33
2022/07/30 11:22:50;;;;;;;2.50;2.30;;;23.40;53.80;;;;;;5002110;28;20030;-35
2022/07/30 11:25:21;;;;;;;2.30;2.10;;;23.30;50.60;;;;;;5003123;28;20113;-31
2022/07/30 11:27:49;;;;;;;4.03;2.80;;;23.30;52.20;;;;;;5003747;28;20034;-31
2022/07/30 11:30:14;;;;;;;2.53;2.30;;;23.20;54.60;;;;;;5002421;28;20487;-34
2022/07/30 11:32:45;;;;;;;2.40;2.20;;;23.40;53.70;;;;;;5002166;28;20034;-32
2022/07/30 11:35:27;;;;;;;2.88;2.33;;;23.80;52.30;;;;;;5002396;28;20064;-31
2022/07/30 11:38:07;;;;;;;4.28;2.30;;;23.50;51.70;;;;;;5002440;28;21999;-31
2022/07/30 11:40:35;;;;;;;2.47;2.28;;;23.50;50.50;;;;;;4997924;28;20034;-32
2022/07/30 11:43:14;;;;;;;;;;;23.50;51.20;;;;;;5000189;28;20025;-32
2022/07/30 11:45:40;;;;;;;6.07;2.80;;;23.50;50.60;;;;;;5002323;28;19920;-33
2022/07/30 11:48:13;;;;;;;2.53;2.33;;;23.50;51.30;;;;;;5002953;28;20034;-32
2022/07/30 11:50:40;;;;;;;2.50;2.30;;;23.60;50.00;;;;;;4999552;28;20034;-31
2022/07/30 11:53:08;;;;;;;3.35;2.30;;;23.60;51.60;;;;;;4998152;28;20412;-33
2022/07/30 11:55:38;;;;;;;;;;;23.60;50.60;;;;;;4999681;28;20049;-33
2022/07/30 11:58:25;;;;;;;2.47;2.28;;;23.50;47.20;;;;;;5001763;28;20445;-32
2022/07/30 12:00:53;;;;;;;2.15;1.85;;;23.40;48.70;;;;;;5001252;28;20105;-33
2022/07/30 12:03:21;;;;;;;2.40;2.10;;;23.50;48.30;;;;;;5007355;28;20030;-31
2022/07/30 12:05:47;;;;;;;3.72;2.85;;;23.60;50.00;;;;;;5000339;28;20040;-31
2022/07/30 12:08:14;;;;;;;3.38;2.80;;;23.70;51.20;;;;;;5007096;28;20041;-31
2022/07/30 12:10:41;;;;;;;2.40;2.10;;;23.60;49.90;;;;;;5007509;28;20398;-31
2022/07/30 12:13:12;;;;;;;2.70;2.50;;;23.70;50.40;;;;;;5007590;28;20022;-33
2022/07/30 12:15:43;;;;;;;2.92;2.72;;;23.60;47.50;;;;;;5007077;28;20112;-31
2022/07/30 12:18:12;;;;;;;2.80;2.60;;;23.60;48.50;;;;;;5005478;28;20030;-32
2022/07/30 12:20:41;;;;;;;4.25;2.70;;;23.60;48.80;;;;;;5008340;28;20025;-32
2022/07/30 12:23:14;;;;;;;2.83;2.63;;;23.70;51.70;;;;;;5005229;28;20033;-31
2022/07/30 12:25:40;;;;;;;2.63;2.42;;;23.80;49.90;;;;;;5004147;28;20042;-31
2022/07/30 12:28:09;;;;;;;4.75;2.42;;;23.90;50.30;;;;;;5005218;28;20073;-31
2022/07/30 12:30:37;;;;;;;2.90;2.60;;;23.80;47.00;;;;;;5003566;28;21016;-33
2022/07/30 12:33:04;;;;;;;5.32;2.53;;;23.60;49.70;;;;;;5006305;28;20480;-31
2022/07/30 12:35:51;;;;;;;3.25;2.95;;;23.50;51.40;;;;;;5003867;28;20021;-32
2022/07/30 12:38:18;;;;;;;2.22;2.05;;;23.50;49.30;;;;;;5006070;28;20048;-32
2022/07/30 12:40:55;;;;;;;3.17;2.87;;;23.60;47.80;;;;;;5005770;28;20403;-32
2022/07/30 12:43:47;;;;;;;2.92;2.67;;;23.70;48.10;;;;;;5009232;28;20150;-34
2022/07/30 12:46:25;;;;;;;1.98;1.88;;;24.00;49.50;;;;;;5004997;28;20029;-31
2022/07/30 12:49:00;;;;;;;3.55;2.40;;;24.00;48.00;;;;;;5005819;28;20033;-31
2022/07/30 12:51:28;;;;;;;2.05;1.95;;;24.20;48.90;;;;;;5008346;28;20045;-32
2022/07/30 12:53:55;;;;;;;3.33;2.28;;;24.30;48.50;;;;;;5004549;28;20026;-31
2022/07/30 12:56:27;;;;;;;2.75;2.22;;;24.40;49.10;;;;;;5004257;28;20058;-31